Skip to content.

Wairarapa Tararua

  

Mobile Unit

Logged in to unit HSN3657 as: Guest
(Last data received Wed 21 Feb 2018 06:40:00 - 3 minutes ago)

Weather FWI Graphs Hourly FWI Daily FWI Download FWI Data

Hourly FWI Logs | Period From 06:43 20/02/2018 to 06:43 21/02/2018

Change the DoC% for the 24hr period starting 12:00pm 20/2/2018 to

If the date above is the current day, then all future logs will inherit this value until such time as it is changed again. If you wish to change historic values you can do so by going back to the day you want to alter (navigate via the graphs) and change the DoC% there (however this will only affect that day).

WindRainHourly FWIsDaily FWIsForestGrassScrub
DateTime (NZST)Temp (C)RH (%)Dir (deg)Speed (km/h)Hourly (mm)Daily (mm)FFMCISIHFWIFFMCDMCDCISIBUIFWIDSRROS (m/h)FFI (kW/m)FFDCDoC (%)ROS (m/h)GFI (kW/m)GFDCROS (m/h)SFI (kW/m)SFDC
21/02/2018 0500 19.4 55.0 99 7.7 0.0 65.4 0.8 0.7 9 8 L 70 13 23 M 103 1029 H
21/02/2018 0400 19.8 58.0 108 2.2 0.0 63.0 0.5 0.5 5 5 L 70 7 12 M 60 595 H
21/02/2018 0300 20.4 63.0 107 1.7 0.0 61.1 0.5 0.4 4 4 L 70 6 10 L 49 493 M
21/02/2018 0200 21.7 58.0 104 5.1 0.0 59.2 0.5 0.5 4 4 L 70 6 11 M 53 535 H
21/02/2018 0100 22.0 55.0 100 3.2 0.0 56.4 0.4 0.3 3 2 L 70 4 6 L 34 344 M
21/02/2018 0000 22.8 54.0 98 17.9 0.0 53.5 0.6 0.6 6 5 L 70 8 14 M 69 688 H
20/02/2018 2300 22.9 60.0 104 22.6 0.0 48.8 0.4 0.4 3 3 L 70 5 9 L 44 443 M
20/02/2018 2200 23.0 63.0 102 13.9 0.0 43.7 0.1 0.1 0 0 L 70 1 1 L 8 77 M
20/02/2018 2100 23.6 62.0 104 23.8 0.0 39.2 0.1 0.1 0 0 L 70 0 1 L 5 47 M
20/02/2018 2000 24.1 65.0 104 18.6 0.0 33.3 0.0 0.0 0 0 L 70 0 0 L 0 5 L
20/02/2018 1900 26.1 59.0 104 15.5 0.0 27.8 0.0 0.0 0 0 L 70 0 0 L 0 0 L
20/02/2018 1800 23.8 79.0 311 1.0 0.0 21.4 0.0 0.0 0 0 L 70 0 0 L 0 0 L
20/02/2018 1700 24.9 80.0 76 0.6 0.0 19.1 0.0 0.0 0 0 L 70 0 0 L 0 0 L
20/02/2018 1600 27.1 62.0 113 4.4 0.0 17.1 0.0 0.0 0 0 L 70 0 0 L 0 0 L
20/02/2018 1500 27.3 63.0 87 3.7 0.0 12.1 0.0 0.0 0 0 L 70 0 0 L 0 0 L
20/02/2018 1400 27.1 69.0 88 1.7 0.0 7.4 0.0 0.0 0 0 L 70 0 0 L 0 0 L
20/02/2018 1300 25.4 77.0 84 2.8 0.0 3.7 0.0 0.0 0 0 L 70 0 0 L 0 0 L
20/02/2018 1200 21.7 95.0 43 0.0 0.0 22.0 0.8 0.0 0.0 17.0 11.6 235.5 0.0 20.7 0.0 0.0 0 0 L 70 0 0 L 0 0 L
20/02/2018 1100 20.4 98.0 83 0.1 0.0 0.4 0.0 0.0 0 0 L 70 0 0 L 0 0 L
20/02/2018 1000 18.9 99.0 103 0.0 0.0 0.2 0.0 0.0 0 0 L 70 0 0 L 0 0 L
20/02/2018 0900 17.8 98.0 80 0.3 2.0 0.2 0.0 0.0 0 0 L 70 0 0 L 0 0 L
20/02/2018 0800 17.7 98.0 79 0.1 4.0 0.1 0.0 0.0 0 0 L 70 0 0 L 0 0 L
20/02/2018 0700 17.7 97.0 81 1.0 4.0 2.3 0.0 0.0 0 0 L 70 0 0 L 0 0 L
20/02/2018 0600 18.3 97.0 82 0.0 1.0 5.6 0.0 0.0 0 0 L 70 0 0 L 0 0 L